Time;durP1;ratioP1;P1;durP2;ratioP2;P2;SDS_P1;SDS_P2;PMS_P1;PMS_P2;Temp;Humidity;BMP_temperature;BMP_pressure;BME280_temperature;BME280_humidity;BME280_pressure;Samples;Min_cycle;Max_cycle;Signal;HPM_P1;HPM_P2
2021/12/23 00:00:58;;;;;;;60.17;29.58;;;;;;;;;;4975454;28;20047;-65
2021/12/23 00:03:25;;;;;;;58.08;28.67;;;;;;;;;;4974641;28;20047;-66
2021/12/23 00:05:53;;;;;;;53.25;27.02;;;;;;;;;;4972674;28;20047;-66
2021/12/23 00:08:21;;;;;;;51.35;26.77;;;;;;;;;;4974109;28;20046;-64
2021/12/23 00:10:47;;;;;;;52.47;26.58;;;;;;;;;;4958365;28;20046;-65
2021/12/23 00:13:15;;;;;;;58.63;27.58;;;;;;;;;;4975040;28;20612;-65
2021/12/23 00:23:51;;;;;;;57.53;26.67;;;;;;;;;;4973387;28;20043;-65
2021/12/23 00:26:17;;;;;;;56.53;27.58;;;;;;;;;;4974976;28;20051;-65
2021/12/23 00:28:44;;;;;;;57.63;27.98;;;;;;;;;;4974943;28;20101;-66
2021/12/23 00:31:11;;;;;;;61.42;27.83;;;;;;;;;;4974517;28;20055;-64
2021/12/23 00:33:39;;;;;;;56.13;27.33;;;;;;;;;;4974517;28;20130;-66
2021/12/23 00:36:09;;;;;;;64.00;28.90;;;;;;;;;;4974938;28;20512;-65
2021/12/23 00:38:42;;;;;;;57.70;28.13;;;;;;;;;;4974800;28;20087;-67
2021/12/23 00:41:09;;;;;;;53.38;25.25;;;;;;;;;;4973159;28;20109;-67
2021/12/23 00:43:36;;;;;;;50.78;24.48;;;;;;;;;;4974495;28;20051;-67
2021/12/23 00:46:03;;;;;;;55.85;27.42;;;;;;;;;;4972298;28;20046;-67
2021/12/23 00:48:31;;;;;;;50.05;25.70;;;;;;;;;;4974214;28;20498;-66
2021/12/23 00:50:57;;;;;;;47.90;25.80;;;;;;;;;;4974694;28;20097;-65
2021/12/23 00:53:26;;;;;;;47.42;25.15;;;;;;;;;;4974292;28;20050;-66
2021/12/23 00:55:54;;;;;;;47.55;23.73;;;;;;;;;;4974486;28;20109;-65
2021/12/23 00:58:22;;;;;;;46.88;23.30;;;;;;;;;;4974236;28;20039;-67
2021/12/23 01:00:49;;;;;;;51.45;26.52;;;;;;;;;;4974529;28;20050;-67
2021/12/23 01:03:16;;;;;;;49.58;24.55;;;;;;;;;;4974173;28;20105;-65
2021/12/23 01:05:43;;;;;;;53.95;26.02;;;;;;;;;;4971804;28;20070;-67
2021/12/23 01:08:10;;;;;;;46.42;23.83;;;;;;;;;;4974425;28;20481;-66
2021/12/23 01:10:36;;;;;;;49.90;24.77;;;;;;;;;;4974141;28;20051;-66
2021/12/23 01:13:05;;;;;;;49.53;23.63;;;;;;;;;;4974093;28;20047;-67
2021/12/23 01:18:19;;;;;;;50.55;25.52;;;;;;;;;;4974024;28;20078;-67
2021/12/23 01:21:03;;;;;;;50.63;24.73;;;;;;;;;;4974180;28;20093;-67
2021/12/23 01:23:34;;;;;;;49.50;26.20;;;;;;;;;;4972904;28;20124;-65
2021/12/23 01:26:01;;;;;;;56.83;25.88;;;;;;;;;;4971941;28;20046;-66
2021/12/23 01:28:27;;;;;;;50.88;26.00;;;;;;;;;;4973581;28;20457;-67
2021/12/23 01:30:54;;;;;;;53.17;25.25;;;;;;;;;;4973903;28;20050;-68
2021/12/23 01:33:21;;;;;;;47.33;23.38;;;;;;;;;;4974013;28;20054;-66
2021/12/23 01:35:50;;;;;;;49.08;23.42;;;;;;;;;;4974150;28;20564;-68
2021/12/23 01:38:17;;;;;;;43.35;21.95;;;;;;;;;;4973961;28;20058;-66
2021/12/23 01:40:46;;;;;;;49.42;23.77;;;;;;;;;;4974216;28;20079;-67
2021/12/23 01:43:17;;;;;;;42.95;22.63;;;;;;;;;;4973037;28;20110;-68
2021/12/23 01:45:46;;;;;;;43.97;22.90;;;;;;;;;;4973976;28;20115;-67
2021/12/23 01:48:14;;;;;;;45.00;23.75;;;;;;;;;;4973680;28;20050;-66
2021/12/23 01:50:41;;;;;;;45.40;23.13;;;;;;;;;;4973837;28;20130;-67
2021/12/23 01:53:07;;;;;;;44.67;22.30;;;;;;;;;;4973782;28;20047;-67
2021/12/23 01:55:38;;;;;;;49.67;23.55;;;;;;;;;;4973537;28;20055;-67
2021/12/23 01:58:06;;;;;;;44.53;22.45;;;;;;;;;;4973680;28;20118;-67
2021/12/23 02:00:35;;;;;;;50.65;23.10;;;;;;;;;;4973701;28;20118;-67
2021/12/23 02:03:02;;;;;;;47.13;23.38;;;;;;;;;;4978508;28;20082;-66
2021/12/23 02:05:30;;;;;;;45.42;23.00;;;;;;;;;;4971336;28;20054;-68
2021/12/23 02:07:58;;;;;;;44.35;22.17;;;;;;;;;;4992436;28;20054;-67
2021/12/23 02:10:26;;;;;;;48.47;24.92;;;;;;;;;;4990955;28;20069;-66
2021/12/23 02:12:53;;;;;;;47.38;23.35;;;;;;;;;;4990939;28;20046;-67
2021/12/23 02:15:20;;;;;;;45.78;22.65;;;;;;;;;;4992815;28;20108;-66
2021/12/23 02:17:48;;;;;;;47.35;22.75;;;;;;;;;;4992919;28;20116;-67
2021/12/23 02:20:18;;;;;;;45.97;22.88;;;;;;;;;;4992925;28;20571;-67
2021/12/23 02:22:45;;;;;;;49.28;25.25;;;;;;;;;;4992794;28;20054;-67
2021/12/23 02:25:13;;;;;;;43.58;22.85;;;;;;;;;;4992702;28;20062;-66
2021/12/23 02:27:40;;;;;;;41.80;22.52;;;;;;;;;;4992808;28;20058;-66
2021/12/23 02:30:10;;;;;;;43.30;22.65;;;;;;;;;;4992685;28;20485;-66
2021/12/23 02:32:37;;;;;;;41.95;21.90;;;;;;;;;;4992570;28;20057;-66
2021/12/23 02:35:05;;;;;;;45.92;23.83;;;;;;;;;;4992576;28;20058;-67
2021/12/23 02:37:32;;;;;;;40.50;20.95;;;;;;;;;;4992463;28;20054;-68
2021/12/23 02:39:59;;;;;;;43.80;22.98;;;;;;;;;;4991473;28;20039;-66
2021/12/23 02:42:26;;;;;;;43.22;23.13;;;;;;;;;;4992603;28;20050;-67
2021/12/23 02:44:53;;;;;;;43.67;22.27;;;;;;;;;;4992330;28;20073;-66
2021/12/23 02:47:20;;;;;;;40.78;22.55;;;;;;;;;;4992645;28;20054;-67
2021/12/23 02:49:47;;;;;;;41.33;21.25;;;;;;;;;;4992378;28;20069;-66
2021/12/23 02:52:15;;;;;;;42.10;21.45;;;;;;;;;;4992464;28;20058;-67
2021/12/23 02:54:42;;;;;;;43.55;21.55;;;;;;;;;;4991924;28;20050;-67
2021/12/23 02:57:09;;;;;;;39.28;20.15;;;;;;;;;;4977959;28;20481;-68
2021/12/23 02:59:35;;;;;;;42.95;22.15;;;;;;;;;;4972914;28;20074;-68
2021/12/23 03:02:02;;;;;;;42.55;21.17;;;;;;;;;;4973096;28;20055;-67
2021/12/23 03:04:29;;;;;;;41.83;21.35;;;;;;;;;;4972606;28;20477;-66
2021/12/23 03:06:56;;;;;;;45.25;22.50;;;;;;;;;;4972835;28;20079;-67
2021/12/23 03:09:22;;;;;;;44.05;21.88;;;;;;;;;;4972711;28;20114;-68
2021/12/23 03:11:49;;;;;;;39.88;20.88;;;;;;;;;;4972940;28;20130;-66
2021/12/23 03:14:16;;;;;;;44.00;20.65;;;;;;;;;;4971440;28;20050;-66
2021/12/23 03:16:42;;;;;;;41.90;21.83;;;;;;;;;;4973047;28;20051;-67
2021/12/23 03:19:09;;;;;;;41.33;21.77;;;;;;;;;;4972957;28;20082;-68
2021/12/23 03:21:36;;;;;;;43.53;22.10;;;;;;;;;;4972757;28;20138;-68
2021/12/23 03:24:03;;;;;;;39.35;21.08;;;;;;;;;;4972498;28;20057;-67
2021/12/23 03:26:30;;;;;;;41.88;20.40;;;;;;;;;;4972740;28;20051;-68
2021/12/23 03:28:56;;;;;;;40.20;21.63;;;;;;;;;;4972564;28;20564;-67
2021/12/23 03:31:23;;;;;;;43.10;21.70;;;;;;;;;;4971557;28;20105;-68
2021/12/23 03:33:50;;;;;;;41.75;20.63;;;;;;;;;;4972499;28;20062;-66
2021/12/23 03:36:17;;;;;;;43.40;21.13;;;;;;;;;;4972757;28;20051;-68
2021/12/23 03:38:43;;;;;;;40.15;20.70;;;;;;;;;;4972427;28;20421;-68
2021/12/23 03:41:10;;;;;;;43.80;22.48;;;;;;;;;;4972702;28;20433;-66
2021/12/23 03:43:37;;;;;;;47.97;24.60;;;;;;;;;;4972387;28;20476;-68
2021/12/23 03:46:06;;;;;;;46.45;23.17;;;;;;;;;;4972944;28;20080;-69
2021/12/23 03:48:34;;;;;;;42.25;22.75;;;;;;;;;;4976373;28;20073;-68
2021/12/23 03:51:01;;;;;;;42.15;22.05;;;;;;;;;;4981325;28;20083;-69
2021/12/23 03:53:27;;;;;;;46.10;23.33;;;;;;;;;;4984364;28;20082;-69
2021/12/23 03:55:54;;;;;;;38.63;21.40;;;;;;;;;;4983819;28;20047;-69
2021/12/23 03:58:21;;;;;;;41.65;21.23;;;;;;;;;;4983409;28;20101;-65
2021/12/23 04:00:48;;;;;;;45.33;23.25;;;;;;;;;;4984596;28;20443;-66
2021/12/23 04:03:15;;;;;;;40.95;21.52;;;;;;;;;;4986476;28;20051;-66
2021/12/23 04:05:42;;;;;;;41.53;22.48;;;;;;;;;;4987499;28;20565;-66
2021/12/23 04:08:08;;;;;;;39.05;21.17;;;;;;;;;;4988592;28;20051;-66
2021/12/23 04:10:35;;;;;;;41.78;20.90;;;;;;;;;;4989272;28;20055;-65
2021/12/23 04:13:02;;;;;;;43.67;21.73;;;;;;;;;;4989679;28;20074;-66
2021/12/23 04:15:29;;;;;;;42.42;23.25;;;;;;;;;;4989114;28;20101;-65
2021/12/23 04:17:55;;;;;;;39.88;21.75;;;;;;;;;;4988265;28;20088;-66
2021/12/23 04:20:30;;;;;;;40.97;20.75;;;;;;;;;;4986903;28;20047;-66
2021/12/23 04:22:56;;;;;;;40.40;21.92;;;;;;;;;;4967779;28;20047;-66
2021/12/23 04:25:24;;;;;;;47.42;22.77;;;;;;;;;;4966541;28;20051;-64
2021/12/23 04:27:53;;;;;;;45.55;22.17;;;;;;;;;;4956316;28;20109;-66
2021/12/23 04:30:21;;;;;;;38.08;20.92;;;;;;;;;;4956073;29;20047;-65
2021/12/23 04:32:48;;;;;;;41.88;20.75;;;;;;;;;;4974206;28;20498;-65
2021/12/23 04:35:14;;;;;;;41.47;20.33;;;;;;;;;;4975175;28;20050;-66
2021/12/23 04:37:41;;;;;;;40.78;21.30;;;;;;;;;;4975581;28;20105;-66
2021/12/23 04:40:10;;;;;;;40.70;21.50;;;;;;;;;;4975310;28;20129;-65
2021/12/23 04:42:36;;;;;;;42.67;22.17;;;;;;;;;;4974809;28;20054;-65
2021/12/23 04:45:05;;;;;;;39.40;20.35;;;;;;;;;;4975148;28;20051;-66
2021/12/23 04:47:31;;;;;;;37.60;19.85;;;;;;;;;;4975432;28;20105;-64
2021/12/23 04:49:58;;;;;;;38.22;20.38;;;;;;;;;;4975060;28;20051;-64
2021/12/23 04:52:26;;;;;;;38.47;21.23;;;;;;;;;;4974789;28;20109;-64
2021/12/23 04:54:52;;;;;;;40.10;19.95;;;;;;;;;;4974799;28;20518;-64
2021/12/23 04:57:19;;;;;;;38.10;20.75;;;;;;;;;;4974854;28;20058;-64
2021/12/23 04:59:46;;;;;;;37.65;20.25;;;;;;;;;;4990084;28;20105;-65
2021/12/23 05:02:12;;;;;;;39.25;20.92;;;;;;;;;;4974715;28;20051;-65
2021/12/23 05:04:39;;;;;;;41.53;21.30;;;;;;;;;;4974698;28;20129;-65
2021/12/23 05:07:06;;;;;;;41.97;21.40;;;;;;;;;;4974658;28;20088;-65
2021/12/23 05:09:32;;;;;;;37.80;21.45;;;;;;;;;;4974482;28;20050;-66
2021/12/23 05:11:59;;;;;;;41.78;21.95;;;;;;;;;;4974562;28;20461;-65
2021/12/23 05:14:25;;;;;;;41.92;20.38;;;;;;;;;;4974332;28;20109;-65
2021/12/23 05:16:52;;;;;;;40.53;20.35;;;;;;;;;;4974413;28;20059;-65
2021/12/23 05:19:18;;;;;;;39.60;21.40;;;;;;;;;;4974457;28;20051;-65
2021/12/23 05:21:45;;;;;;;44.85;22.50;;;;;;;;;;4974467;28;20058;-66
2021/12/23 05:24:12;;;;;;;41.88;22.27;;;;;;;;;;4974077;28;20469;-65
2021/12/23 05:26:38;;;;;;;44.15;21.65;;;;;;;;;;4973834;28;20101;-65
2021/12/23 05:29:05;;;;;;;43.28;22.65;;;;;;;;;;4974220;28;20584;-65
2021/12/23 05:31:32;;;;;;;43.85;21.17;;;;;;;;;;4974111;28;20113;-66
2021/12/23 05:33:59;;;;;;;41.03;20.95;;;;;;;;;;4974142;28;20047;-65
2021/12/23 05:36:25;;;;;;;41.58;21.30;;;;;;;;;;4974071;28;20098;-66
2021/12/23 05:38:52;;;;;;;39.30;21.38;;;;;;;;;;4973928;28;20050;-65
2021/12/23 05:41:18;;;;;;;46.15;23.52;;;;;;;;;;4973888;28;20174;-65
2021/12/23 05:43:45;;;;;;;41.60;20.98;;;;;;;;;;4973708;28;20078;-66
2021/12/23 05:46:12;;;;;;;42.45;21.70;;;;;;;;;;4973876;28;20556;-66
2021/12/23 05:48:38;;;;;;;44.67;21.45;;;;;;;;;;4973814;28;20059;-66
2021/12/23 05:51:05;;;;;;;50.90;23.65;;;;;;;;;;4973736;28;20046;-66
2021/12/23 05:53:31;;;;;;;56.83;27.05;;;;;;;;;;4973552;28;20101;-67
2021/12/23 05:55:58;;;;;;;50.95;24.50;;;;;;;;;;4973854;28;20050;-67
2021/12/23 05:58:24;;;;;;;44.00;21.63;;;;;;;;;;4973642;28;20093;-66
2021/12/23 06:00:53;;;;;;;37.88;19.65;;;;;;;;;;4973602;28;20070;-66
2021/12/23 06:03:20;;;;;;;45.13;21.17;;;;;;;;;;4973447;28;20133;-66
2021/12/23 06:05:46;;;;;;;38.47;19.73;;;;;;;;;;4973622;28;20101;-66
2021/12/23 06:08:13;;;;;;;43.42;22.35;;;;;;;;;;4973670;28;20051;-65
2021/12/23 06:10:39;;;;;;;42.28;21.33;;;;;;;;;;4973400;28;20042;-66
2021/12/23 06:13:06;;;;;;;40.90;21.13;;;;;;;;;;4973596;28;20105;-66
2021/12/23 06:15:33;;;;;;;39.25;21.23;;;;;;;;;;4973417;28;20414;-65
2021/12/23 06:17:59;;;;;;;39.70;20.83;;;;;;;;;;4973539;28;20076;-66
2021/12/23 06:20:26;;;;;;;39.67;20.77;;;;;;;;;;4973732;28;20039;-66
2021/12/23 06:22:53;;;;;;;42.35;21.55;;;;;;;;;;4973516;28;20054;-66
2021/12/23 06:25:20;;;;;;;49.38;24.55;;;;;;;;;;4973280;28;20456;-65
2021/12/23 06:27:46;;;;;;;42.35;21.58;;;;;;;;;;4987666;28;20441;-65
2021/12/23 06:30:19;;;;;;;39.80;19.48;;;;;;;;;;4973170;28;20101;-65
2021/12/23 06:32:51;;;;;;;44.25;21.63;;;;;;;;;;4973285;28;20050;-65
2021/12/23 06:35:20;;;;;;;46.17;22.27;;;;;;;;;;4973120;28;20501;-66
2021/12/23 06:37:47;;;;;;;41.17;21.75;;;;;;;;;;4973096;28;20078;-66
2021/12/23 06:40:13;;;;;;;39.40;20.77;;;;;;;;;;4973011;28;20047;-66
2021/12/23 06:42:40;;;;;;;39.78;20.60;;;;;;;;;;4973070;28;20050;-66
2021/12/23 06:45:07;;;;;;;41.17;20.63;;;;;;;;;;4971830;28;20074;-65
2021/12/23 06:47:34;;;;;;;41.67;21.52;;;;;;;;;;4972941;28;20050;-66
2021/12/23 06:50:03;;;;;;;40.10;20.33;;;;;;;;;;4973029;28;20098;-66
2021/12/23 06:52:30;;;;;;;40.28;20.55;;;;;;;;;;4972916;28;20051;-66
2021/12/23 06:54:57;;;;;;;37.60;18.15;;;;;;;;;;4987902;28;20113;-64
2021/12/23 06:57:26;;;;;;;39.30;19.92;;;;;;;;;;4971838;28;20058;-65
2021/12/23 06:59:52;;;;;;;39.35;20.00;;;;;;;;;;4972868;28;20047;-66
2021/12/23 07:02:19;;;;;;;38.28;19.02;;;;;;;;;;4973039;28;20051;-65
2021/12/23 07:04:46;;;;;;;41.85;20.73;;;;;;;;;;4987683;28;20086;-66
2021/12/23 07:07:24;;;;;;;42.58;20.35;;;;;;;;;;4972869;28;20073;-66
2021/12/23 07:09:50;;;;;;;37.53;19.45;;;;;;;;;;4953708;29;20051;-65
2021/12/23 07:12:17;;;;;;;42.17;20.73;;;;;;;;;;4968609;28;20102;-65
2021/12/23 07:14:44;;;;;;;40.90;19.70;;;;;;;;;;4953147;29;20110;-66
2021/12/23 07:17:10;;;;;;;39.92;20.27;;;;;;;;;;4981593;28;20059;-65
2021/12/23 07:19:37;;;;;;;42.97;19.80;;;;;;;;;;4970423;28;20113;-64
2021/12/23 07:22:04;;;;;;;36.50;19.98;;;;;;;;;;4971143;28;20183;-65
2021/12/23 07:24:30;;;;;;;40.10;19.35;;;;;;;;;;4970550;28;20050;-65
2021/12/23 07:26:57;;;;;;;38.75;19.13;;;;;;;;;;4971117;28;20109;-65
2021/12/23 07:29:23;;;;;;;40.83;19.20;;;;;;;;;;4970247;28;20722;-65
2021/12/23 07:31:50;;;;;;;46.88;20.98;;;;;;;;;;4970899;28;20074;-65
2021/12/23 07:34:17;;;;;;;43.63;21.77;;;;;;;;;;4970735;28;20055;-65
2021/12/23 07:36:44;;;;;;;46.70;21.90;;;;;;;;;;4970864;28;20050;-64
2021/12/23 07:39:10;;;;;;;46.95;21.60;;;;;;;;;;4969543;28;20055;-65
2021/12/23 07:41:57;;;;;;;44.15;20.98;;;;;;;;;;4973750;28;20134;-65
2021/12/23 07:44:34;;;;;;;50.40;22.83;;;;;;;;;;4974308;28;20062;-65
2021/12/23 07:47:02;;;;;;;41.72;20.40;;;;;;;;;;4974427;28;20047;-66
2021/12/23 07:49:29;;;;;;;40.75;21.15;;;;;;;;;;4973881;28;20050;-65
2021/12/23 07:51:55;;;;;;;43.42;20.25;;;;;;;;;;4974297;28;20105;-66
2021/12/23 07:54:22;;;;;;;45.08;20.48;;;;;;;;;;4956337;28;20106;-65
2021/12/23 07:56:48;;;;;;;39.03;19.73;;;;;;;;;;4974434;28;20055;-65
2021/12/23 07:59:15;;;;;;;42.47;20.85;;;;;;;;;;4973937;28;20105;-66
2021/12/23 08:01:42;;;;;;;37.33;21.42;;;;;;;;;;4974052;28;20070;-66
2021/12/23 08:04:08;;;;;;;37.65;18.67;;;;;;;;;;4973906;28;20046;-65
2021/12/23 08:06:35;;;;;;;39.67;19.38;;;;;;;;;;4972956;28;20081;-66
2021/12/23 08:09:02;;;;;;;40.25;19.50;;;;;;;;;;4973423;28;20047;-65
2021/12/23 08:11:29;;;;;;;43.17;20.80;;;;;;;;;;4973875;28;20133;-66
2021/12/23 08:13:56;;;;;;;44.22;20.20;;;;;;;;;;4973709;28;20054;-66
2021/12/23 08:16:22;;;;;;;39.92;19.23;;;;;;;;;;4974081;28;20054;-66
2021/12/23 08:18:49;;;;;;;39.92;19.10;;;;;;;;;;4973834;28;20051;-65
2021/12/23 08:21:16;;;;;;;37.90;18.05;;;;;;;;;;4973343;28;20046;-66
2021/12/23 08:23:43;;;;;;;37.08;18.70;;;;;;;;;;4973118;28;20062;-65
2021/12/23 08:26:15;;;;;;;37.13;18.52;;;;;;;;;;4973774;28;20054;-64
2021/12/23 08:28:43;;;;;;;35.22;17.67;;;;;;;;;;4973895;28;20059;-66
2021/12/23 08:31:09;;;;;;;39.05;19.50;;;;;;;;;;4974231;28;20082;-65
2021/12/23 08:33:36;;;;;;;37.13;18.70;;;;;;;;;;4975457;28;20497;-64
2021/12/23 08:36:03;;;;;;;33.75;17.00;;;;;;;;;;4975496;28;20046;-65
2021/12/23 08:38:30;;;;;;;32.58;16.65;;;;;;;;;;4990297;28;20117;-64
2021/12/23 08:40:56;;;;;;;36.10;18.85;;;;;;;;;;4974316;28;20046;-66
2021/12/23 08:43:23;;;;;;;35.47;18.15;;;;;;;;;;4961128;28;20477;-66
2021/12/23 08:45:50;;;;;;;36.42;19.23;;;;;;;;;;4966900;28;20059;-68
2021/12/23 08:48:17;;;;;;;35.78;17.42;;;;;;;;;;4962524;28;20117;-65
2021/12/23 08:50:44;;;;;;;36.40;17.88;;;;;;;;;;4960708;28;20105;-66
2021/12/23 08:53:10;;;;;;;37.50;18.05;;;;;;;;;;4966233;28;20051;-65
2021/12/23 08:55:37;;;;;;;37.22;18.40;;;;;;;;;;4960611;28;20058;-65
2021/12/23 08:58:04;;;;;;;33.75;16.30;;;;;;;;;;4960783;28;20106;-65
2021/12/23 09:00:33;;;;;;;35.00;17.40;;;;;;;;;;4964646;28;20047;-67
2021/12/23 09:03:00;;;;;;;37.03;17.33;;;;;;;;;;4964761;28;20051;-66
2021/12/23 09:05:27;;;;;;;34.33;15.95;;;;;;;;;;4962286;28;20054;-68
2021/12/23 09:07:54;;;;;;;28.92;15.23;;;;;;;;;;4964920;28;20406;-67
2021/12/23 09:10:21;;;;;;;34.83;16.00;;;;;;;;;;4958609;28;20446;-67
2021/12/23 09:12:48;;;;;;;31.48;15.63;;;;;;;;;;4957839;28;20054;-66
2021/12/23 09:15:15;;;;;;;38.83;17.05;;;;;;;;;;4957532;28;20056;-67
2021/12/23 09:17:42;;;;;;;29.15;15.18;;;;;;;;;;4974116;28;20105;-67
2021/12/23 09:20:10;;;;;;;29.63;15.95;;;;;;;;;;4960250;28;20109;-69
2021/12/23 09:22:38;;;;;;;28.02;14.63;;;;;;;;;;4962091;28;20106;-67
2021/12/23 09:25:11;;;;;;;29.45;14.95;;;;;;;;;;4968949;28;20055;-66
2021/12/23 09:28:04;;;;;;;30.33;15.15;;;;;;;;;;4961594;28;20054;-66
2021/12/23 09:33:18;;;;;;;29.95;14.98;;;;;;;;;;4961928;28;20059;-68
2021/12/23 09:35:53;;;;;;;25.38;12.75;;;;;;;;;;4962174;28;20058;-67
2021/12/23 09:38:27;;;;;;;27.65;14.60;;;;;;;;;;4978801;28;20055;-67
2021/12/23 09:41:00;;;;;;;32.53;14.80;;;;;;;;;;4962963;28;20039;-67
2021/12/23 09:43:29;;;;;;;29.92;15.57;;;;;;;;;;4966877;28;20109;-67
2021/12/23 09:45:56;;;;;;;30.20;15.80;;;;;;;;;;4959865;28;20059;-67
2021/12/23 09:48:22;;;;;;;27.42;14.82;;;;;;;;;;4963634;28;20070;-67
2021/12/23 09:50:50;;;;;;;28.95;15.43;;;;;;;;;;4958441;28;20047;-66
2021/12/23 09:53:19;;;;;;;28.80;14.15;;;;;;;;;;4959248;28;20097;-68
2021/12/23 09:55:46;;;;;;;36.38;15.43;;;;;;;;;;4955450;28;20104;-69
2021/12/23 09:58:12;;;;;;;26.90;14.32;;;;;;;;;;4964578;28;20054;-70
2021/12/23 10:00:45;;;;;;;28.60;14.30;;;;;;;;;;4959860;28;20055;-70
2021/12/23 10:03:21;;;;;;;24.60;14.15;;;;;;;;;;4963613;28;20058;-68
2021/12/23 10:05:47;;;;;;;;;;;;;;;;;;4967017;28;20051;-70
2021/12/23 10:08:15;;;;;;;23.33;13.35;;;;;;;;;;4962273;28;19949;-67
2021/12/23 10:38:36;;;;;;;24.00;13.35;;;;;;;;;;4940255;28;20055;-65
2021/12/23 10:41:13;;;;;;;25.27;13.40;;;;;;;;;;4937265;29;20079;-66
2021/12/23 10:43:48;;;;;;;24.75;14.88;;;;;;;;;;4957634;28;20528;-65
2021/12/23 10:46:34;;;;;;;24.45;13.07;;;;;;;;;;4942525;28;20562;-64
2021/12/23 10:49:38;;;;;;;26.27;12.65;;;;;;;;;;4938541;28;20151;-63
2021/12/23 10:52:14;;;;;;;22.25;12.27;;;;;;;;;;4938485;28;20135;-64
2021/12/23 11:00:24;;;;;;;22.83;11.93;;;;;;;;;;4940689;29;20063;-66
2021/12/23 11:03:15;;;;;;;20.90;11.80;;;;;;;;;;4939143;29;20495;-64
2021/12/23 11:05:49;;;;;;;25.27;13.63;;;;;;;;;;4939650;28;20054;-67
2021/12/23 11:08:25;;;;;;;22.90;13.63;;;;;;;;;;4951877;28;20048;-65
2021/12/23 11:11:48;;;;;;;23.17;12.27;;;;;;;;;;4936634;29;20339;-64
2021/12/23 11:41:59;;;;;;;25.85;11.32;;;;;;;;;;4942971;29;20047;-64
2021/12/23 11:44:25;;;;;;;18.92;11.63;;;;;;;;;;4943755;28;20051;-64
2021/12/23 11:46:56;;;;;;;19.08;11.02;;;;;;;;;;4955361;28;20051;-65
2021/12/23 11:49:23;;;;;;;18.20;9.98;;;;;;;;;;4934738;29;20056;-65
2021/12/23 11:54:25;;;;;;;17.38;10.48;;;;;;;;;;4942268;29;20059;-65
2021/12/23 11:56:54;;;;;;;18.23;9.93;;;;;;;;;;4955011;28;20055;-65
2021/12/23 11:59:21;;;;;;;17.30;10.80;;;;;;;;;;4942547;28;20059;-66
2021/12/23 12:01:53;;;;;;;17.58;10.18;;;;;;;;;;4943485;29;20138;-67
2021/12/23 12:04:32;;;;;;;17.67;10.07;;;;;;;;;;4943126;28;20134;-66
2021/12/23 12:06:59;;;;;;;18.30;9.60;;;;;;;;;;4943774;28;20058;-65
2021/12/23 12:09:32;;;;;;;19.25;9.93;;;;;;;;;;4941315;29;20051;-65
2021/12/23 12:11:58;;;;;;;16.70;9.57;;;;;;;;;;4940974;28;20051;-64
2021/12/23 12:14:40;;;;;;;16.70;9.30;;;;;;;;;;4943965;29;20146;-64
2021/12/23 12:17:25;;;;;;;14.70;8.77;;;;;;;;;;4945280;29;20110;-66
2021/12/23 12:20:04;;;;;;;15.10;9.05;;;;;;;;;;4943024;28;20062;-65
2021/12/23 12:22:48;;;;;;;14.82;7.95;;;;;;;;;;4939440;28;20052;-66
2021/12/23 12:25:38;;;;;;;14.18;8.43;;;;;;;;;;4952579;28;20059;-66
2021/12/23 12:28:05;;;;;;;12.00;7.68;;;;;;;;;;4944186;28;20271;-65
2021/12/23 12:30:44;;;;;;;14.57;8.98;;;;;;;;;;4940221;29;20059;-64
2021/12/23 12:33:23;;;;;;;13.02;7.60;;;;;;;;;;4945779;29;20054;-67
2021/12/23 12:36:03;;;;;;;15.05;8.50;;;;;;;;;;4944470;28;20058;-66
2021/12/23 12:38:31;;;;;;;17.00;7.93;;;;;;;;;;4941467;28;20105;-66
2021/12/23 12:41:00;;;;;;;13.68;7.53;;;;;;;;;;4939777;28;20047;-66
2021/12/23 12:43:48;;;;;;;14.93;8.60;;;;;;;;;;4943395;28;20111;-66
2021/12/23 12:46:44;;;;;;;11.88;7.40;;;;;;;;;;4941515;29;20487;-65
2021/12/23 12:49:17;;;;;;;12.90;7.18;;;;;;;;;;4933567;29;20515;-66
2021/12/23 12:51:46;;;;;;;12.55;7.65;;;;;;;;;;4939789;29;20103;-65
2021/12/23 12:54:19;;;;;;;11.63;7.32;;;;;;;;;;4943590;28;20102;-66
2021/12/23 12:56:51;;;;;;;14.63;7.50;;;;;;;;;;4940319;28;20055;-65
2021/12/23 12:59:23;;;;;;;13.77;7.40;;;;;;;;;;4940924;29;20487;-66
2021/12/23 13:01:51;;;;;;;17.98;8.40;;;;;;;;;;4943256;28;20558;-69
2021/12/23 13:04:40;;;;;;;13.95;8.27;;;;;;;;;;4943249;28;20482;-66
2021/12/23 13:07:35;;;;;;;15.80;9.20;;;;;;;;;;4939021;28;20400;-65
2021/12/23 13:10:17;;;;;;;13.88;8.38;;;;;;;;;;4938852;29;20047;-64
2021/12/23 13:12:50;;;;;;;17.85;8.35;;;;;;;;;;4940984;29;20086;-65
2021/12/23 13:15:29;;;;;;;15.27;7.57;;;;;;;;;;4941305;29;20095;-63
2021/12/23 13:17:58;;;;;;;13.02;7.10;;;;;;;;;;4939148;29;20058;-63
2021/12/23 13:20:47;;;;;;;14.88;7.63;;;;;;;;;;4944826;28;20458;-63
2021/12/23 13:23:21;;;;;;;14.93;7.97;;;;;;;;;;4942223;28;20051;-64
2021/12/23 13:25:51;;;;;;;13.05;7.72;;;;;;;;;;4939662;29;20091;-63
2021/12/23 13:28:37;;;;;;;11.65;7.70;;;;;;;;;;4938552;28;20740;-64
2021/12/23 13:31:10;;;;;;;12.88;8.00;;;;;;;;;;4941876;29;20075;-66
2021/12/23 13:33:46;;;;;;;;;;;;;;;;;;4943070;29;20086;-64
2021/12/23 13:36:19;;;;;;;11.63;7.05;;;;;;;;;;4939134;28;19993;-64
2021/12/23 13:38:46;;;;;;;15.65;7.90;;;;;;;;;;4947056;28;20076;-64
2021/12/23 13:41:28;;;;;;;13.65;7.57;;;;;;;;;;4947428;28;20101;-64
2021/12/23 13:43:58;;;;;;;11.18;6.60;;;;;;;;;;4945171;28;20058;-64
2021/12/23 13:46:27;;;;;;;16.17;8.27;;;;;;;;;;4939946;29;20149;-65
2021/12/23 13:48:58;;;;;;;14.00;7.38;;;;;;;;;;4941879;29;20129;-65
2021/12/23 13:51:29;;;;;;;10.18;5.63;;;;;;;;;;4942716;28;20050;-65
2021/12/23 13:54:03;;;;;;;9.43;6.32;;;;;;;;;;4943130;28;20055;-64
2021/12/23 13:56:33;;;;;;;14.20;6.53;;;;;;;;;;4938195;29;20114;-63
2021/12/23 13:59:06;;;;;;;11.25;6.07;;;;;;;;;;4940787;29;20055;-64
2021/12/23 14:01:33;;;;;;;12.48;7.10;;;;;;;;;;4927246;28;20055;-64
2021/12/23 14:04:01;;;;;;;11.25;7.15;;;;;;;;;;4940028;28;20058;-64
2021/12/23 14:06:29;;;;;;;9.73;5.88;;;;;;;;;;4940113;28;20106;-63
2021/12/23 14:08:57;;;;;;;10.75;6.03;;;;;;;;;;4940475;28;20115;-63
2021/12/23 14:11:25;;;;;;;9.75;6.32;;;;;;;;;;4955899;28;20050;-63
2021/12/23 14:13:52;;;;;;;12.00;6.32;;;;;;;;;;4941188;28;20055;-63
2021/12/23 14:16:19;;;;;;;10.80;6.70;;;;;;;;;;4943559;29;20489;-67
2021/12/23 14:18:58;;;;;;;10.95;6.13;;;;;;;;;;4938115;29;20055;-64
2021/12/23 14:24:11;;;;;;;11.60;6.53;;;;;;;;;;4942117;29;20051;-64
2021/12/23 14:26:39;;;;;;;12.48;6.57;;;;;;;;;;4947822;28;20117;-65
2021/12/23 14:29:14;;;;;;;9.00;5.85;;;;;;;;;;4932870;29;20075;-65
2021/12/23 14:31:43;;;;;;;14.80;6.65;;;;;;;;;;4939373;28;20655;-64
2021/12/23 14:34:12;;;;;;;11.30;7.45;;;;;;;;;;4936650;29;20055;-64
2021/12/23 14:36:50;;;;;;;11.35;6.60;;;;;;;;;;4941702;28;20044;-63
2021/12/23 14:39:26;;;;;;;10.63;6.35;;;;;;;;;;4938650;28;20074;-63
2021/12/23 14:41:59;;;;;;;12.82;7.90;;;;;;;;;;4937422;28;20435;-63
2021/12/23 14:44:27;;;;;;;16.85;8.77;;;;;;;;;;4940397;28;20055;-63
2021/12/23 14:47:04;;;;;;;14.45;7.93;;;;;;;;;;4937069;29;20467;-65
2021/12/23 14:52:18;;;;;;;16.25;8.18;;;;;;;;;;4941420;29;20055;-63
2021/12/23 14:55:03;;;;;;;13.50;7.95;;;;;;;;;;4939876;28;20058;-63
2021/12/23 14:57:32;;;;;;;13.50;8.40;;;;;;;;;;4941038;28;20071;-63
2021/12/23 15:00:24;;;;;;;16.80;11.02;;;;;;;;;;4938535;28;20051;-63
2021/12/23 15:03:03;;;;;;;23.85;14.57;;;;;;;;;;4941730;28;20048;-65
2021/12/23 15:05:30;;;;;;;22.13;13.52;;;;;;;;;;4938766;29;20055;-63
2021/12/23 15:08:17;;;;;;;28.42;14.57;;;;;;;;;;4937083;28;20052;-64
2021/12/23 15:10:46;;;;;;;21.25;13.93;;;;;;;;;;4938168;29;20047;-64
2021/12/23 15:13:22;;;;;;;16.95;11.13;;;;;;;;;;4968824;28;20039;-63
2021/12/23 15:16:09;;;;;;;19.13;11.60;;;;;;;;;;4951882;28;20052;-64
2021/12/23 15:18:53;;;;;;;17.52;10.30;;;;;;;;;;4940094;29;20458;-64
2021/12/23 15:21:31;;;;;;;12.48;7.95;;;;;;;;;;4941667;28;20106;-64
2021/12/23 15:23:59;;;;;;;15.13;9.10;;;;;;;;;;4940292;28;20048;-66
2021/12/23 15:26:32;;;;;;;12.55;8.13;;;;;;;;;;4936864;29;20465;-64
2021/12/23 15:29:13;;;;;;;12.55;7.97;;;;;;;;;;4936828;28;20051;-64
2021/12/23 15:31:41;;;;;;;15.75;8.60;;;;;;;;;;4955228;28;20098;-65
2021/12/23 15:34:10;;;;;;;14.07;9.32;;;;;;;;;;4936922;29;20040;-64
2021/12/23 15:36:39;;;;;;;14.18;9.60;;;;;;;;;;4940093;28;20483;-65
2021/12/23 15:39:31;;;;;;;13.35;8.38;;;;;;;;;;4936559;29;20085;-65
2021/12/23 15:41:58;;;;;;;13.32;9.07;;;;;;;;;;4937005;29;20055;-65
2021/12/23 15:44:26;;;;;;;15.07;10.05;;;;;;;;;;4940297;28;20047;-64
2021/12/23 15:46:53;;;;;;;24.63;12.98;;;;;;;;;;4937197;29;20463;-64
2021/12/23 15:49:20;;;;;;;23.75;14.88;;;;;;;;;;4939863;29;20058;-63
2021/12/23 15:51:47;;;;;;;21.88;13.07;;;;;;;;;;4937219;29;20051;-63
2021/12/23 15:54:18;;;;;;;17.63;12.38;;;;;;;;;;4937206;28;20150;-65
2021/12/23 15:56:44;;;;;;;44.33;24.17;;;;;;;;;;4938416;29;20059;-65
2021/12/23 15:59:11;;;;;;;29.30;17.90;;;;;;;;;;4942799;28;20118;-65